createdAt,value
2022-10-07T00:00:56.815Z,97170
2022-10-07T00:03:56.781Z,97168
2022-10-07T00:04:56.746Z,97171
2022-10-07T00:05:56.773Z,97169
2022-10-07T00:08:56.765Z,97169
2022-10-07T00:11:56.797Z,97170
2022-10-07T00:12:56.794Z,97170
2022-10-07T00:13:56.773Z,97169
2022-10-07T00:16:56.868Z,97166
2022-10-07T00:23:56.828Z,97167
2022-10-07T00:25:56.803Z,97174
2022-10-07T00:26:56.814Z,97171
2022-10-07T00:27:56.905Z,97171
2022-10-07T00:28:56.820Z,97171
2022-10-07T00:29:56.849Z,97168
2022-10-07T00:30:56.889Z,97173
2022-10-07T00:31:57.425Z,97173
2022-10-07T00:32:56.827Z,97169
2022-10-07T00:33:56.830Z,97172
2022-10-07T00:34:56.877Z,97172
2022-10-07T00:35:56.842Z,97172
2022-10-07T00:36:56.825Z,97166
2022-10-07T00:37:56.866Z,97166
2022-10-07T00:38:56.855Z,97170
2022-10-07T00:40:56.904Z,97167
2022-10-07T00:41:56.857Z,97167
2022-10-07T00:44:56.856Z,97160
2022-10-07T00:45:56.967Z,97160
2022-10-07T00:46:56.886Z,97163
2022-10-07T00:48:56.878Z,97163
2022-10-07T00:51:56.894Z,97161
2022-10-07T00:53:56.916Z,97161
2022-10-07T00:54:56.902Z,97160
2022-10-07T00:55:56.892Z,97159
2022-10-07T00:56:58.208Z,97159
2022-10-07T00:57:56.911Z,97159
2022-10-07T00:58:56.906Z,97159
2022-10-07T00:59:56.910Z,97159
2022-10-07T01:00:57.007Z,97156
2022-10-07T01:02:56.919Z,97154
2022-10-07T01:03:56.926Z,97154
2022-10-07T01:04:56.920Z,97156
2022-10-07T01:05:56.958Z,97155
2022-10-07T01:06:56.917Z,97154
2022-10-07T01:07:59.175Z,97148
2022-10-07T01:08:56.916Z,97148
2022-10-07T01:09:56.922Z,97150
2022-10-07T01:10:56.948Z,97148
2022-10-07T01:11:56.961Z,97148
2022-10-07T01:12:56.933Z,97148
2022-10-07T01:15:56.960Z,97147
2022-10-07T01:16:56.967Z,97144
2022-10-07T01:18:56.988Z,97142
2022-10-07T01:19:56.967Z,97145
2022-10-07T01:20:56.967Z,97141
2022-10-07T01:21:56.964Z,97141
2022-10-07T01:22:56.970Z,97138
2022-10-07T01:23:56.964Z,97137
2022-10-07T01:24:57.022Z,97132
2022-10-07T01:26:56.974Z,97132
2022-10-07T01:27:57.038Z,97128
2022-10-07T01:28:56.978Z,97126
2022-10-07T01:29:56.984Z,97127
2022-10-07T01:31:57.011Z,97119
2022-10-07T01:32:56.996Z,97120
2022-10-07T01:33:58.497Z,97117
2022-10-07T01:34:56.996Z,97117
2022-10-07T01:36:57.016Z,97114
2022-10-07T01:37:57.036Z,97112
2022-10-07T01:38:57.050Z,97111
2022-10-07T01:39:57.029Z,97110
2022-10-07T01:40:57.047Z,97106
2022-10-07T01:43:57.067Z,97104
2022-10-07T01:44:57.040Z,97103
2022-10-07T01:45:57.089Z,97104
2022-10-07T01:46:57.031Z,97100
2022-10-07T01:47:57.032Z,97100
2022-10-07T01:49:57.075Z,97094
2022-10-07T01:51:57.032Z,97097
2022-10-07T01:52:57.047Z,97095
2022-10-07T01:53:57.030Z,97093
2022-10-07T01:54:57.048Z,97093
2022-10-07T01:55:57.077Z,97092
2022-10-07T01:56:57.064Z,97090
2022-10-07T01:57:57.063Z,97090
2022-10-07T01:58:57.053Z,97093
2022-10-07T01:59:57.054Z,97093
2022-10-07T02:01:57.241Z,97090
2022-10-07T02:02:57.062Z,97093
2022-10-07T02:03:57.111Z,97087
2022-10-07T02:04:57.107Z,97090
2022-10-07T02:05:57.076Z,97084
2022-10-07T02:06:57.084Z,97083
2022-10-07T02:07:57.135Z,97083
2022-10-07T02:08:57.078Z,97085
2022-10-07T02:09:57.102Z,97083
2022-10-07T02:11:57.103Z,97082
2022-10-07T02:13:57.100Z,97081
2022-10-07T02:16:57.119Z,97079
2022-10-07T02:17:57.114Z,97079
2022-10-07T02:18:57.094Z,97075
2022-10-07T02:20:57.145Z,97076
2022-10-07T02:21:57.108Z,97075
2022-10-07T02:22:57.129Z,97075
2022-10-07T02:23:57.116Z,97075
2022-10-07T02:24:57.121Z,97074
2022-10-07T02:25:57.112Z,97071
2022-10-07T02:26:57.166Z,97071
2022-10-07T02:28:57.125Z,97068
2022-10-07T02:29:57.120Z,97066
2022-10-07T02:31:57.136Z,97061
2022-10-07T02:32:57.171Z,97062
2022-10-07T02:33:57.134Z,97059
2022-10-07T02:34:57.129Z,97059
2022-10-07T02:35:57.169Z,97059
2022-10-07T02:36:57.154Z,97062
2022-10-07T02:38:57.218Z,97061
2022-10-07T02:39:57.154Z,97061
2022-10-07T02:40:57.159Z,97056
2022-10-07T02:41:57.157Z,97056
2022-10-07T02:42:57.179Z,97061
2022-10-07T02:43:57.184Z,97058
2022-10-07T02:45:57.224Z,97058
2022-10-07T02:46:57.199Z,97055
2022-10-07T02:47:59.018Z,97057
2022-10-07T02:48:57.185Z,97057
2022-10-07T02:49:57.189Z,97055
2022-10-07T02:50:57.194Z,97055
2022-10-07T02:51:57.200Z,97054
2022-10-07T02:53:57.218Z,97054
2022-10-07T02:54:57.199Z,97058
2022-10-07T02:55:57.212Z,97058
2022-10-07T02:56:57.209Z,97058
2022-10-07T02:57:57.241Z,97054
2022-10-07T02:58:57.213Z,97053
2022-10-07T02:59:57.211Z,97052
2022-10-07T03:00:57.203Z,97049
2022-10-07T03:01:57.275Z,97049
2022-10-07T03:02:57.228Z,97047
2022-10-07T03:03:57.314Z,97047
2022-10-07T03:04:57.209Z,97051
2022-10-07T03:06:57.246Z,97046
2022-10-07T03:07:57.229Z,97048
2022-10-07T03:09:57.311Z,97046
2022-10-07T03:10:57.254Z,97044
2022-10-07T03:11:57.226Z,97047
2022-10-07T03:12:57.236Z,97043
2022-10-07T03:13:57.249Z,97040
2022-10-07T03:14:57.241Z,97040
2022-10-07T03:18:57.301Z,97046
2022-10-07T03:20:57.272Z,97042
2022-10-07T03:22:57.278Z,97041
2022-10-07T03:23:57.292Z,97043
2022-10-07T03:24:59.342Z,97040
2022-10-07T03:25:57.279Z,97040
2022-10-07T03:26:57.258Z,97040
2022-10-07T03:28:57.260Z,97039
2022-10-07T03:29:57.280Z,97041
2022-10-07T03:30:57.358Z,97041
2022-10-07T03:31:57.285Z,97035
2022-10-07T03:32:57.290Z,97035
2022-10-07T03:33:57.296Z,97037
2022-10-07T03:34:57.294Z,97037
2022-10-07T03:35:57.310Z,97035
2022-10-07T03:36:57.331Z,97037
2022-10-07T03:37:57.319Z,97037
2022-10-07T03:40:57.301Z,97035
2022-10-07T03:46:57.492Z,97031
2022-10-07T03:47:57.349Z,97031
2022-10-07T03:50:57.344Z,97034
2022-10-07T03:52:57.380Z,97033
2022-10-07T03:53:57.401Z,97033
2022-10-07T03:54:57.358Z,97032
2022-10-07T03:55:57.344Z,97032
2022-10-07T03:58:57.397Z,97030
2022-10-07T03:59:57.349Z,97028
2022-10-07T04:02:57.465Z,97026
2022-10-07T04:03:57.379Z,97029
2022-10-07T04:05:57.410Z,97028
2022-10-07T04:06:57.371Z,97030
2022-10-07T04:08:57.408Z,97029
2022-10-07T04:09:57.393Z,97029
2022-10-07T04:10:57.411Z,97028
2022-10-07T04:12:57.424Z,97030
2022-10-07T04:13:57.390Z,97028
2022-10-07T04:15:57.474Z,97030
2022-10-07T04:16:57.412Z,97029
2022-10-07T04:17:57.409Z,97029
2022-10-07T04:22:57.431Z,97022
2022-10-07T04:23:57.427Z,97022
2022-10-07T04:24:57.432Z,97023
2022-10-07T04:25:57.437Z,97021
2022-10-07T04:28:57.480Z,97019
2022-10-07T04:29:57.443Z,97019
2022-10-07T04:30:57.438Z,97022
2022-10-07T04:36:57.486Z,97015
2022-10-07T04:37:57.451Z,97014
2022-10-07T04:38:59.949Z,97012
2022-10-07T04:40:57.473Z,97012
2022-10-07T04:44:57.517Z,97008
2022-10-07T04:46:57.513Z,97007
2022-10-07T04:50:57.523Z,97006
2022-10-07T04:51:57.503Z,97007
2022-10-07T04:53:57.496Z,97005
2022-10-07T04:54:57.493Z,97004
2022-10-07T04:57:57.551Z,97007
2022-10-07T04:58:57.513Z,97007
2022-10-07T05:00:57.617Z,97008
2022-10-07T05:02:57.542Z,97011
2022-10-07T05:03:57.557Z,97011
2022-10-07T05:05:57.533Z,97011
2022-10-07T05:06:57.534Z,97012
2022-10-07T05:08:57.536Z,97009
2022-10-07T05:09:57.578Z,97007
2022-10-07T05:12:57.550Z,97008
2022-10-07T05:13:57.543Z,97005
2022-10-07T05:14:57.548Z,97005
2022-10-07T05:16:00.301Z,97004
2022-10-07T05:16:57.545Z,97004
2022-10-07T05:17:57.547Z,97003
2022-10-07T05:18:57.548Z,97004
2022-10-07T05:19:57.587Z,97002
2022-10-07T05:23:57.599Z,97004
2022-10-07T05:24:57.578Z,97002
2022-10-07T05:27:57.689Z,97004
2022-10-07T05:29:57.614Z,97004
2022-10-07T05:30:57.597Z,97002
2022-10-07T05:32:00.949Z,97007
2022-10-07T05:32:57.576Z,97003
2022-10-07T05:33:57.604Z,97006
2022-10-07T05:34:57.609Z,97006
2022-10-07T05:35:57.649Z,97009
2022-10-07T05:36:57.621Z,97008
2022-10-07T05:37:57.610Z,97008
2022-10-07T05:38:57.639Z,97008
2022-10-07T05:39:57.616Z,97008
2022-10-07T05:40:57.616Z,97009
2022-10-07T05:41:57.662Z,97007
2022-10-07T05:42:57.653Z,97007
2022-10-07T05:43:57.634Z,97007
2022-10-07T05:44:57.633Z,97010
2022-10-07T05:45:57.648Z,97008
2022-10-07T05:46:57.625Z,97007
2022-10-07T05:48:57.657Z,97003
2022-10-07T05:50:57.659Z,97000
2022-10-07T05:51:57.663Z,97002
2022-10-07T05:53:00.473Z,97002
2022-10-07T05:53:57.717Z,97005
2022-10-07T05:54:57.681Z,97005
2022-10-07T05:55:57.667Z,97002
2022-10-07T05:57:57.678Z,97002
2022-10-07T06:01:01.048Z,97001
2022-10-07T06:01:57.877Z,97001
2022-10-07T06:02:57.852Z,97000
2022-10-07T06:04:57.681Z,97004
2022-10-07T06:05:57.681Z,97002
2022-10-07T06:06:57.702Z,97002
2022-10-07T06:07:57.689Z,97001
2022-10-07T06:08:57.699Z,97002
2022-10-07T06:09:57.715Z,97001
2022-10-07T06:10:57.727Z,96999
2022-10-07T06:11:57.701Z,97001
2022-10-07T06:12:57.784Z,97000
2022-10-07T06:13:57.718Z,96999
2022-10-07T06:14:57.722Z,96999
2022-10-07T06:16:57.837Z,97001
2022-10-07T06:17:57.710Z,97002
2022-10-07T06:18:57.746Z,97002
2022-10-07T06:19:57.717Z,97005
2022-10-07T06:20:57.715Z,97005
2022-10-07T06:21:57.721Z,97004
2022-10-07T06:23:57.724Z,97004
2022-10-07T06:24:57.777Z,97003
2022-10-07T06:25:57.753Z,97000
2022-10-07T06:26:57.760Z,97006
2022-10-07T06:27:58.266Z,97006
2022-10-07T06:28:57.754Z,97008
2022-10-07T06:30:57.877Z,97005
2022-10-07T06:31:57.743Z,97000
2022-10-07T06:32:57.753Z,97004
2022-10-07T06:33:57.760Z,97004
2022-10-07T06:34:57.762Z,97003
2022-10-07T06:38:57.812Z,97006
2022-10-07T06:39:59.767Z,97006
2022-10-07T06:40:57.786Z,97010
2022-10-07T06:41:57.779Z,97009
2022-10-07T06:42:57.784Z,97008
2022-10-07T06:43:57.797Z,97009
2022-10-07T06:45:57.870Z,97005
2022-10-07T06:46:57.797Z,97005
2022-10-07T06:47:57.814Z,97006
2022-10-07T06:48:57.799Z,97007
2022-10-07T06:49:58.866Z,97006
2022-10-07T06:50:57.784Z,97006
2022-10-07T06:51:57.829Z,97007
2022-10-07T06:52:57.801Z,97008
2022-10-07T06:53:57.797Z,97008
2022-10-07T06:54:57.814Z,97008
2022-10-07T06:55:57.821Z,97008
2022-10-07T06:56:57.810Z,97003
2022-10-07T06:57:58.201Z,97003
2022-10-07T06:58:57.814Z,97001
2022-10-07T06:59:57.838Z,96999
2022-10-07T07:00:57.879Z,97000
2022-10-07T07:02:57.819Z,96999
2022-10-07T07:05:57.871Z,96995
2022-10-07T07:07:01.045Z,97001
2022-10-07T07:07:57.840Z,96997
2022-10-07T07:08:57.851Z,96997
2022-10-07T07:09:57.844Z,96999
2022-10-07T07:10:57.863Z,96997
2022-10-07T07:11:57.898Z,96998
2022-10-07T07:12:57.943Z,97000
2022-10-07T07:13:57.873Z,97000
2022-10-07T07:14:57.872Z,97003
2022-10-07T07:15:57.920Z,97005
2022-10-07T07:16:57.965Z,97004
2022-10-07T07:17:57.918Z,97004
2022-10-07T07:18:57.881Z,97005
2022-10-07T07:19:57.900Z,97008
2022-10-07T07:20:57.885Z,97008
2022-10-07T07:21:57.889Z,97012
2022-10-07T07:22:57.887Z,97012
2022-10-07T07:23:57.926Z,97011
2022-10-07T07:24:57.901Z,97013
2022-10-07T07:25:57.911Z,97009
2022-10-07T07:26:57.894Z,97017
2022-10-07T07:27:58.368Z,97014
2022-10-07T07:28:57.933Z,97012
2022-10-07T07:29:57.948Z,97010
2022-10-07T07:30:57.944Z,97015
2022-10-07T07:31:57.905Z,97012
2022-10-07T07:32:57.917Z,97011
2022-10-07T07:33:57.912Z,97011
2022-10-07T07:34:57.934Z,97012
2022-10-07T07:35:57.967Z,97011
2022-10-07T07:36:57.917Z,97011
2022-10-07T07:37:57.923Z,97009
2022-10-07T07:38:57.933Z,97011
2022-10-07T07:39:57.913Z,97011
2022-10-07T07:40:57.933Z,97011
2022-10-07T07:46:58.005Z,97010
2022-10-07T07:47:57.948Z,97008
2022-10-07T07:48:57.963Z,97010
2022-10-07T07:49:57.939Z,97010
2022-10-07T07:50:57.958Z,97010
2022-10-07T07:52:57.985Z,97011
2022-10-07T07:53:57.963Z,97009
2022-10-07T07:54:57.973Z,97009
2022-10-07T07:55:57.960Z,97009
2022-10-07T07:56:57.982Z,97008
2022-10-07T07:57:58.018Z,97007
2022-10-07T07:58:57.978Z,97008
2022-10-07T07:59:57.986Z,97008
2022-10-07T08:00:58.016Z,97001
2022-10-07T08:01:57.976Z,96999
2022-10-07T08:02:57.979Z,96999
2022-10-07T08:03:58.016Z,96998
2022-10-07T08:04:57.984Z,97000
2022-10-07T08:05:58.009Z,97000
2022-10-07T08:06:58.020Z,96996
2022-10-07T08:07:58.027Z,96996
2022-10-07T08:08:58.018Z,96997
2022-10-07T08:09:58.081Z,96995
2022-10-07T08:10:58.033Z,96992
2022-10-07T08:11:58.028Z,96996
2022-10-07T08:12:58.028Z,96994
2022-10-07T08:13:58.031Z,96997
2022-10-07T08:14:58.024Z,96997
2022-10-07T08:15:58.332Z,96998
2022-10-07T08:16:57.998Z,97003
2022-10-07T08:17:58.029Z,97003
2022-10-07T08:18:58.027Z,97005
2022-10-07T08:19:58.033Z,97004
2022-10-07T08:21:01.616Z,97003
2022-10-07T08:21:58.049Z,97004
2022-10-07T08:22:59.110Z,97004
2022-10-07T08:23:58.061Z,97004
2022-10-07T08:24:58.073Z,96999
2022-10-07T08:25:58.112Z,96998
2022-10-07T08:26:58.114Z,96995
2022-10-07T08:28:58.052Z,96998
2022-10-07T08:29:58.068Z,96996
2022-10-07T08:30:58.114Z,96996
2022-10-07T08:33:01.417Z,96996
2022-10-07T08:33:58.080Z,96996
2022-10-07T08:34:58.084Z,96992
2022-10-07T08:35:58.075Z,96999
2022-10-07T08:36:58.083Z,96999
2022-10-07T08:37:58.080Z,97000
2022-10-07T08:38:58.210Z,96996
2022-10-07T08:39:58.082Z,96996
2022-10-07T08:40:58.094Z,96991
2022-10-07T08:41:58.093Z,96993
2022-10-07T08:42:58.120Z,96992
2022-10-07T08:44:00.832Z,96995
2022-10-07T08:44:58.132Z,96994
2022-10-07T08:45:58.167Z,96988
2022-10-07T08:46:58.106Z,96988
2022-10-07T08:47:58.109Z,96986
2022-10-07T08:48:58.114Z,96986
2022-10-07T08:49:58.123Z,96983
2022-10-07T08:50:58.157Z,96983
2022-10-07T08:51:58.109Z,96984
2022-10-07T08:52:58.123Z,96982
2022-10-07T08:53:58.120Z,96981
2022-10-07T08:54:58.113Z,96982
2022-10-07T08:56:58.174Z,96978
2022-10-07T08:58:01.854Z,96980
2022-10-07T08:58:58.138Z,96980
2022-10-07T08:59:58.145Z,96981
2022-10-07T09:00:58.130Z,96981
2022-10-07T09:01:58.137Z,96982
2022-10-07T09:02:58.278Z,96979
2022-10-07T09:03:58.142Z,96979
2022-10-07T09:04:58.149Z,96980
2022-10-07T09:05:58.154Z,96978
2022-10-07T09:06:58.163Z,96981
2022-10-07T09:07:58.160Z,96973
2022-10-07T09:08:58.193Z,96973
2022-10-07T09:09:58.170Z,96972
2022-10-07T09:10:58.176Z,96974
2022-10-07T09:11:58.212Z,96972
2022-10-07T09:12:58.151Z,96972
2022-10-07T09:13:58.162Z,96968
2022-10-07T09:14:58.244Z,96968
2022-10-07T09:15:58.223Z,96964
2022-10-07T09:16:58.160Z,96963
2022-10-07T09:17:58.176Z,96962
2022-10-07T09:18:58.182Z,96962
2022-10-07T09:19:58.307Z,96962
2022-10-07T09:20:58.234Z,96960
2022-10-07T09:21:58.195Z,96956
2022-10-07T09:22:58.183Z,96956
2022-10-07T09:23:58.203Z,96958
2022-10-07T09:24:58.199Z,96955
2022-10-07T09:27:58.253Z,96952
2022-10-07T09:28:58.213Z,96951
2022-10-07T09:29:58.214Z,96951
2022-10-07T09:30:58.253Z,96951
2022-10-07T09:31:58.225Z,96946
2022-10-07T09:33:58.276Z,96944
2022-10-07T09:35:02.146Z,96945
2022-10-07T09:35:58.252Z,96945
2022-10-07T09:36:58.222Z,96941
2022-10-07T09:37:58.229Z,96936
2022-10-07T09:38:58.208Z,96936
2022-10-07T09:39:58.263Z,96936
2022-10-07T09:40:58.228Z,96938
2022-10-07T09:41:58.223Z,96936
2022-10-07T09:42:58.237Z,96940
2022-10-07T09:43:58.238Z,96938
2022-10-07T09:44:58.276Z,96939
2022-10-07T09:45:58.290Z,96941
2022-10-07T09:46:58.243Z,96935
2022-10-07T09:47:58.272Z,96937
2022-10-07T09:48:58.260Z,96938
2022-10-07T09:49:58.269Z,96937
2022-10-07T09:50:58.264Z,96937
2022-10-07T09:51:58.285Z,96936
2022-10-07T09:52:58.268Z,96933
2022-10-07T09:53:58.258Z,96937
2022-10-07T09:54:58.261Z,96934
2022-10-07T09:55:58.275Z,96934
2022-10-07T09:56:58.295Z,96932
2022-10-07T09:57:58.319Z,96929
2022-10-07T09:58:58.277Z,96928
2022-10-07T09:59:58.288Z,96933
2022-10-07T10:00:58.298Z,96932
2022-10-07T10:01:58.395Z,96931
2022-10-07T10:03:01.221Z,96932
2022-10-07T10:03:58.338Z,96930
2022-10-07T10:04:58.314Z,96929
2022-10-07T10:05:58.297Z,96929
2022-10-07T10:06:58.301Z,96928
2022-10-07T10:07:58.307Z,96929
2022-10-07T10:08:58.305Z,96929
2022-10-07T10:09:58.357Z,96935
2022-10-07T10:10:58.307Z,96928
2022-10-07T10:12:02.484Z,96931
2022-10-07T10:12:58.322Z,96929
2022-10-07T10:13:58.317Z,96929
2022-10-07T10:14:58.333Z,96929
2022-10-07T10:15:58.417Z,96926
2022-10-07T10:16:58.321Z,96928
2022-10-07T10:17:58.343Z,96927
2022-10-07T10:18:58.338Z,96925
2022-10-07T10:19:58.343Z,96924
2022-10-07T10:20:58.330Z,96922
2022-10-07T10:21:58.373Z,96922
2022-10-07T10:22:58.351Z,96920
2022-10-07T10:23:58.365Z,96920
2022-10-07T10:24:58.348Z,96920
2022-10-07T10:25:58.359Z,96917
2022-10-07T10:26:58.345Z,96912
2022-10-07T10:27:58.452Z,96910
2022-10-07T10:28:58.375Z,96909
2022-10-07T10:29:58.346Z,96909
2022-10-07T10:30:58.434Z,96903
2022-10-07T10:31:58.365Z,96901
2022-10-07T10:32:58.345Z,96897
2022-10-07T10:33:58.430Z,96898
2022-10-07T10:34:58.371Z,96900
2022-10-07T10:35:58.393Z,96900
2022-10-07T10:36:58.380Z,96895
2022-10-07T10:37:58.399Z,96895
2022-10-07T10:38:58.405Z,96893
2022-10-07T10:39:58.424Z,96894
2022-10-07T10:40:58.387Z,96890
2022-10-07T10:41:58.377Z,96890
2022-10-07T10:42:58.398Z,96892
2022-10-07T10:43:58.411Z,96894
2022-10-07T10:44:58.411Z,96888
2022-10-07T10:45:58.454Z,96890
2022-10-07T10:46:58.465Z,96884
2022-10-07T10:47:58.396Z,96885
2022-10-07T10:49:02.871Z,96887
2022-10-07T10:49:58.417Z,96884
2022-10-07T10:50:58.414Z,96881
2022-10-07T10:52:58.457Z,96878
2022-10-07T10:53:58.410Z,96878
2022-10-07T10:54:58.415Z,96872
2022-10-07T10:56:58.445Z,96870
2022-10-07T10:58:00.549Z,96871
2022-10-07T10:58:58.469Z,96868
2022-10-07T10:59:58.509Z,96866
2022-10-07T11:00:59.808Z,96866
2022-10-07T11:01:58.474Z,96868
2022-10-07T11:02:58.494Z,96869
2022-10-07T11:03:58.452Z,96865
2022-10-07T11:04:58.494Z,96866
2022-10-07T11:05:58.465Z,96864
2022-10-07T11:06:58.459Z,96864
2022-10-07T11:08:01.414Z,96863
2022-10-07T11:08:58.453Z,96863
2022-10-07T11:10:58.501Z,96864
2022-10-07T11:11:58.476Z,96861
2022-10-07T11:12:58.477Z,96861
2022-10-07T11:13:58.503Z,96857
2022-10-07T11:14:58.486Z,96860
2022-10-07T11:15:58.526Z,96860
2022-10-07T11:16:58.529Z,96853
2022-10-07T11:17:58.503Z,96852
2022-10-07T11:19:58.497Z,96849
2022-10-07T11:20:58.494Z,96842
2022-10-07T11:21:58.499Z,96848
2022-10-07T11:22:58.514Z,96846
2022-10-07T11:23:58.509Z,96844
2022-10-07T11:24:58.524Z,96844
2022-10-07T11:26:03.019Z,96842
2022-10-07T11:26:58.509Z,96842
2022-10-07T11:27:58.597Z,96842
2022-10-07T11:28:58.521Z,96839
2022-10-07T11:29:58.530Z,96834
2022-10-07T11:30:58.585Z,96834
2022-10-07T11:31:58.503Z,96836
2022-10-07T11:32:58.517Z,96831
2022-10-07T11:33:58.536Z,96832
2022-10-07T11:34:58.526Z,96832
2022-10-07T11:35:58.517Z,96831
2022-10-07T11:36:58.537Z,96829
2022-10-07T11:39:58.542Z,96820
2022-10-07T11:40:58.546Z,96818
2022-10-07T11:41:58.555Z,96820
2022-10-07T11:42:58.555Z,96815
2022-10-07T11:43:58.531Z,96810
2022-10-07T11:45:58.582Z,96809
2022-10-07T11:46:58.598Z,96810
2022-10-07T11:47:58.616Z,96804
2022-10-07T11:49:58.558Z,96803
2022-10-07T11:50:58.797Z,96797
2022-10-07T11:51:58.591Z,96794
2022-10-07T11:52:58.581Z,96794
2022-10-07T11:53:58.578Z,96794
2022-10-07T11:55:58.624Z,96787
2022-10-07T11:56:58.592Z,96784
2022-10-07T11:57:58.579Z,96784
2022-10-07T11:58:58.599Z,96783
2022-10-07T11:59:58.589Z,96780
2022-10-07T12:00:58.611Z,96778
2022-10-07T12:01:58.697Z,96772
2022-10-07T12:03:03.294Z,96769
2022-10-07T12:03:58.600Z,96769
2022-10-07T12:04:58.618Z,96767
2022-10-07T12:05:58.599Z,96768
2022-10-07T12:06:58.605Z,96767
2022-10-07T12:07:58.619Z,96767
2022-10-07T12:08:58.627Z,96767
2022-10-07T12:09:58.632Z,96765
2022-10-07T12:10:58.648Z,96759
2022-10-07T12:11:58.617Z,96757
2022-10-07T12:12:58.628Z,96757
2022-10-07T12:13:58.644Z,96754
2022-10-07T12:14:58.647Z,96754
2022-10-07T12:15:58.682Z,96750
2022-10-07T12:16:58.632Z,96748
2022-10-07T12:17:58.660Z,96745
2022-10-07T12:18:58.692Z,96748
2022-10-07T12:19:58.639Z,96746
2022-10-07T12:20:58.652Z,96744
2022-10-07T12:21:58.626Z,96744
2022-10-07T12:22:58.662Z,96746
2022-10-07T12:24:58.648Z,96745
2022-10-07T12:25:58.658Z,96743
2022-10-07T12:26:58.658Z,96743
2022-10-07T12:27:58.693Z,96739
2022-10-07T12:28:58.671Z,96737
2022-10-07T12:29:59.024Z,96734
2022-10-07T12:30:58.680Z,96734
2022-10-07T12:31:58.839Z,96733
2022-10-07T12:32:58.720Z,96729
2022-10-07T12:33:58.686Z,96728
2022-10-07T12:34:58.692Z,96727
2022-10-07T12:35:58.700Z,96726
2022-10-07T12:36:58.711Z,96719
2022-10-07T12:37:58.718Z,96721
2022-10-07T12:38:58.770Z,96720
2022-10-07T12:40:03.612Z,96722
2022-10-07T12:40:58.723Z,96721
2022-10-07T12:41:58.718Z,96723
2022-10-07T12:42:58.701Z,96722
2022-10-07T12:43:58.731Z,96718
2022-10-07T12:44:58.730Z,96718
2022-10-07T12:45:58.826Z,96715
2022-10-07T12:46:58.731Z,96718
2022-10-07T12:47:58.735Z,96717
2022-10-07T12:48:58.709Z,96715
2022-10-07T12:49:58.733Z,96717
2022-10-07T12:50:58.718Z,96714
2022-10-07T12:51:58.747Z,96714
2022-10-07T12:52:58.760Z,96714
2022-10-07T12:53:58.731Z,96718
2022-10-07T12:54:58.752Z,96716
2022-10-07T12:55:58.738Z,96711
2022-10-07T12:56:58.776Z,96712
2022-10-07T12:57:58.766Z,96710
2022-10-07T12:59:58.766Z,96704
2022-10-07T13:00:58.796Z,96706
2022-10-07T13:01:58.862Z,96708
2022-10-07T13:02:58.767Z,96706
2022-10-07T13:03:58.760Z,96704
2022-10-07T13:05:58.786Z,96701
2022-10-07T13:06:58.780Z,96701
2022-10-07T13:08:58.761Z,96701
2022-10-07T13:09:58.790Z,96699
2022-10-07T13:10:58.799Z,96700
2022-10-07T13:13:58.773Z,96699
2022-10-07T13:14:58.795Z,96694
2022-10-07T13:15:58.773Z,96694
2022-10-07T13:17:03.770Z,96690
2022-10-07T13:19:58.827Z,96690
2022-10-07T13:20:58.785Z,96690
2022-10-07T13:21:58.794Z,96686
2022-10-07T13:24:58.815Z,96687
2022-10-07T13:25:58.827Z,96688
2022-10-07T13:26:58.814Z,96687
2022-10-07T13:27:58.859Z,96685
2022-10-07T13:28:58.831Z,96685
2022-10-07T13:29:58.830Z,96678
2022-10-07T13:32:58.873Z,96678
2022-10-07T13:33:58.854Z,96678
2022-10-07T13:37:58.853Z,96668
2022-10-07T13:38:58.858Z,96671
2022-10-07T13:39:58.860Z,96669
2022-10-07T13:40:58.852Z,96668
2022-10-07T13:41:58.857Z,96665
2022-10-07T13:43:58.888Z,96659
2022-10-07T13:44:58.892Z,96665
2022-10-07T13:45:58.938Z,96665
2022-10-07T13:46:58.883Z,96662
2022-10-07T13:48:58.865Z,96658
2022-10-07T13:50:58.988Z,96659
2022-10-07T13:51:58.893Z,96659
2022-10-07T13:52:58.883Z,96659
2022-10-07T13:54:04.007Z,96660
2022-10-07T13:54:58.923Z,96656
2022-10-07T13:55:58.908Z,96652
2022-10-07T13:56:58.917Z,96651
2022-10-07T13:57:58.916Z,96647
2022-10-07T13:58:58.913Z,96649
2022-10-07T13:59:58.915Z,96649
2022-10-07T14:00:58.998Z,96644
2022-10-07T14:02:58.928Z,96640
2022-10-07T14:03:58.904Z,96638
2022-10-07T14:04:58.911Z,96638
2022-10-07T14:05:58.935Z,96639
2022-10-07T14:06:58.917Z,96639
2022-10-07T14:07:58.931Z,96637
2022-10-07T14:08:58.916Z,96636
2022-10-07T14:09:58.943Z,96634
2022-10-07T14:10:58.943Z,96633
2022-10-07T14:11:58.929Z,96633
2022-10-07T14:12:58.947Z,96630
2022-10-07T14:13:58.938Z,96630
2022-10-07T14:14:58.940Z,96627
2022-10-07T14:15:58.945Z,96628
2022-10-07T14:16:59.145Z,96624
2022-10-07T14:17:58.984Z,96622
2022-10-07T14:18:58.956Z,96620
2022-10-07T14:19:59.080Z,96619
2022-10-07T14:20:58.970Z,96616
2022-10-07T14:21:58.949Z,96616
2022-10-07T14:22:58.975Z,96618
2022-10-07T14:24:58.951Z,96614
2022-10-07T14:25:58.980Z,96614
2022-10-07T14:27:59.322Z,96611
2022-10-07T14:28:58.992Z,96609
2022-10-07T14:29:59.003Z,96607
2022-10-07T14:30:59.107Z,96605
2022-10-07T14:33:59.025Z,96598
2022-10-07T14:34:58.983Z,96596
2022-10-07T14:35:59.003Z,96591
2022-10-07T14:36:58.988Z,96590
2022-10-07T14:37:58.998Z,96589
2022-10-07T14:38:59.010Z,96588
2022-10-07T14:39:59.105Z,96586
2022-10-07T14:42:59.019Z,96584
2022-10-07T14:43:59.023Z,96581
2022-10-07T14:44:59.038Z,96584
2022-10-07T14:45:59.123Z,96585
2022-10-07T14:46:59.026Z,96584
2022-10-07T14:47:59.040Z,96586
2022-10-07T14:48:59.018Z,96586
2022-10-07T14:49:59.076Z,96583
2022-10-07T14:50:59.045Z,96582
2022-10-07T14:51:59.045Z,96579
2022-10-07T14:52:59.040Z,96577
2022-10-07T14:53:59.051Z,96577
2022-10-07T14:54:59.034Z,96577
2022-10-07T14:55:59.064Z,96576
2022-10-07T14:56:59.036Z,96572
2022-10-07T14:58:59.059Z,96571
2022-10-07T14:59:59.154Z,96573
2022-10-07T15:00:59.081Z,96569
2022-10-07T15:01:59.058Z,96569
2022-10-07T15:02:59.082Z,96565
2022-10-07T15:04:59.572Z,96562
2022-10-07T15:05:59.090Z,96561
2022-10-07T15:06:59.072Z,96559
2022-10-07T15:07:59.074Z,96557
2022-10-07T15:08:59.066Z,96557
2022-10-07T15:09:59.081Z,96556
2022-10-07T15:10:59.093Z,96551
2022-10-07T15:11:59.137Z,96550
2022-10-07T15:12:59.107Z,96550
2022-10-07T15:13:59.096Z,96550
2022-10-07T15:14:59.099Z,96546
2022-10-07T15:15:59.110Z,96544
2022-10-07T15:16:59.180Z,96543
2022-10-07T15:17:59.106Z,96542
2022-10-07T15:18:59.137Z,96544
2022-10-07T15:19:59.104Z,96544
2022-10-07T15:20:59.124Z,96541
2022-10-07T15:21:59.124Z,96542
2022-10-07T15:22:59.125Z,96546
2022-10-07T15:23:59.137Z,96540
2022-10-07T15:24:59.124Z,96546
2022-10-07T15:25:59.119Z,96541
2022-10-07T15:26:59.135Z,96542
2022-10-07T15:27:59.170Z,96539
2022-10-07T15:28:59.153Z,96539
2022-10-07T15:29:59.147Z,96540
2022-10-07T15:30:59.252Z,96540
2022-10-07T15:31:59.143Z,96538
2022-10-07T15:32:59.129Z,96542
2022-10-07T15:33:59.158Z,96540
2022-10-07T15:34:59.157Z,96544
2022-10-07T15:35:59.147Z,96537
2022-10-07T15:36:59.158Z,96537
2022-10-07T15:37:59.161Z,96536
2022-10-07T15:38:59.143Z,96532
2022-10-07T15:39:59.156Z,96532
2022-10-07T15:40:59.162Z,96530